createdAt,value
2018-11-20T00:02:00.155Z,2.40
2018-11-20T00:04:54.634Z,2.40
2018-11-20T00:07:42.721Z,2.40
2018-11-20T00:10:37.900Z,2.40
2018-11-20T00:13:19.383Z,2.40
2018-11-20T00:16:06.841Z,2.40
2018-11-20T00:21:49.488Z,2.50
2018-11-20T00:24:40.478Z,2.50
2018-11-20T00:27:40.788Z,2.50
2018-11-20T00:30:44.272Z,2.50
2018-11-20T00:33:22.116Z,2.50
2018-11-20T00:36:09.785Z,2.50
2018-11-20T00:39:01.176Z,2.50
2018-11-20T00:41:36.597Z,2.50
2018-11-20T00:44:42.958Z,2.50
2018-11-20T00:47:26.490Z,2.50
2018-11-20T00:50:24.121Z,2.50
2018-11-20T00:53:24.609Z,2.50
2018-11-20T00:56:50.559Z,2.50
2018-11-20T00:59:37.750Z,2.50
2018-11-20T01:02:29.168Z,2.50
2018-11-20T01:05:20.541Z,2.50
2018-11-20T01:08:08.672Z,2.50
2018-11-20T01:10:55.483Z,2.50
2018-11-20T01:13:42.538Z,2.50
2018-11-20T01:16:26.767Z,2.50
2018-11-20T01:19:29.971Z,2.60
2018-11-20T01:22:16.814Z,2.70
2018-11-20T01:25:13.884Z,2.80
2018-11-20T01:27:55.375Z,2.80
2018-11-20T01:30:55.911Z,2.80
2018-11-20T01:33:42.834Z,2.80
2018-11-20T01:36:37.247Z,2.70
2018-11-20T01:39:30.715Z,2.60
2018-11-20T01:42:17.782Z,2.70
2018-11-20T01:45:04.721Z,2.60
2018-11-20T01:47:46.133Z,2.60
2018-11-20T01:50:33.284Z,2.60
2018-11-20T01:53:36.758Z,2.60
2018-11-20T01:56:30.913Z,2.60
2018-11-20T01:59:18.928Z,2.60
2018-11-20T02:02:05.644Z,2.70
2018-11-20T02:04:52.252Z,2.70
2018-11-20T02:07:40.660Z,2.60
2018-11-20T02:10:20.241Z,2.70
2018-11-20T02:14:00.581Z,2.70
2018-11-20T02:16:56.946Z,2.70
2018-11-20T02:19:45.488Z,2.70
2018-11-20T02:22:28.371Z,2.70
2018-11-20T02:25:14.829Z,2.80
2018-11-20T02:28:05.855Z,2.80
2018-11-20T02:30:52.486Z,2.80
2018-11-20T02:33:58.893Z,2.80
2018-11-20T02:36:47.590Z,2.90
2018-11-20T02:39:42.080Z,2.90
2018-11-20T02:42:33.524Z,2.90
2018-11-20T02:45:20.737Z,2.80
2018-11-20T02:48:09.239Z,2.80
2018-11-20T02:50:57.618Z,2.70
2018-11-20T02:53:57.653Z,2.80
2018-11-20T02:56:44.636Z,2.80
2018-11-20T02:59:31.712Z,2.70
2018-11-20T03:02:25.701Z,2.80
2018-11-20T03:05:07.683Z,2.80
2018-11-20T03:07:54.483Z,2.80
2018-11-20T03:10:43.698Z,2.90
2018-11-20T03:13:32.139Z,2.80
2018-11-20T03:16:19.507Z,2.90
2018-11-20T03:19:17.006Z,2.80
2018-11-20T03:22:11.450Z,2.90
2018-11-20T03:24:54.154Z,2.90
2018-11-20T03:27:40.933Z,2.80
2018-11-20T03:31:13.301Z,2.90
2018-11-20T03:33:57.868Z,2.90
2018-11-20T03:36:48.931Z,2.90
2018-11-20T03:39:35.486Z,2.90
2018-11-20T03:42:23.883Z,2.90
2018-11-20T03:45:21.287Z,2.90
2018-11-20T03:48:08.026Z,2.90
2018-11-20T03:51:02.611Z,2.90
2018-11-20T03:54:02.740Z,2.90
2018-11-20T03:56:59.966Z,2.90
2018-11-20T03:59:48.247Z,2.90
2018-11-20T04:02:36.218Z,3.00
2018-11-20T04:05:23.452Z,3.00
2018-11-20T04:08:23.811Z,3.00
2018-11-20T04:11:21.060Z,3.10
2018-11-20T04:14:18.562Z,3.10
2018-11-20T04:17:05.268Z,3.00
2018-11-20T04:19:59.620Z,3.00
2018-11-20T04:22:40.012Z,3.00
2018-11-20T04:25:29.602Z,3.10
2018-11-20T04:28:16.225Z,3.10
2018-11-20T04:31:39.436Z,3.20
2018-11-20T04:34:33.721Z,3.20
2018-11-20T04:37:37.983Z,3.20
2018-11-20T04:40:22.965Z,3.20
2018-11-20T04:43:11.425Z,3.20
2018-11-20T04:46:14.910Z,3.20
2018-11-20T04:49:02.057Z,3.30
2018-11-20T04:51:48.750Z,3.40
2018-11-20T04:54:42.804Z,3.50
2018-11-20T04:57:43.170Z,3.50
2018-11-20T05:00:49.332Z,3.60
2018-11-20T05:03:36.225Z,3.50
2018-11-20T05:06:23.682Z,3.50
2018-11-20T05:09:21.012Z,3.50
2018-11-20T05:12:07.946Z,3.50
2018-11-20T05:14:54.715Z,3.50
2018-11-20T05:17:32.484Z,3.50
2018-11-20T05:20:23.732Z,3.50
2018-11-20T05:23:10.303Z,3.50
2018-11-20T05:26:04.789Z,3.50
2018-11-20T05:29:05.116Z,3.50
2018-11-20T05:31:50.647Z,3.50
2018-11-20T05:34:37.521Z,3.50
2018-11-20T05:37:24.814Z,3.60
2018-11-20T05:40:11.279Z,3.50
2018-11-20T05:42:58.157Z,3.40
2018-11-20T05:45:44.717Z,3.40
2018-11-20T05:48:35.694Z,3.40
2018-11-20T05:51:33.196Z,3.40
2018-11-20T05:54:27.392Z,3.40
2018-11-20T05:57:14.329Z,3.40
2018-11-20T06:00:01.453Z,3.40
2018-11-20T06:02:49.250Z,3.40
2018-11-20T06:05:46.800Z,3.50
2018-11-20T06:08:35.131Z,3.50
2018-11-20T06:11:22.142Z,3.50
2018-11-20T06:14:13.537Z,3.50
2018-11-20T06:17:00.268Z,3.60
2018-11-20T06:19:47.287Z,3.60
2018-11-20T06:22:34.060Z,3.70
2018-11-20T06:25:23.387Z,3.70
2018-11-20T06:28:10.364Z,3.70
2018-11-20T06:31:02.148Z,3.70
2018-11-20T06:33:41.195Z,3.80
2018-11-20T06:36:32.083Z,3.80
2018-11-20T06:39:26.637Z,3.80
2018-11-20T06:42:13.386Z,3.80
2018-11-20T06:45:10.412Z,3.80
2018-11-20T06:48:10.483Z,3.90
2018-11-20T06:50:58.978Z,3.90
2018-11-20T06:53:37.023Z,3.90
2018-11-20T06:56:28.366Z,3.90
2018-11-20T06:59:15.280Z,4.00
2018-11-20T07:02:02.116Z,4.00
2018-11-20T07:05:02.380Z,4.10
2018-11-20T07:08:09.288Z,4.10
2018-11-20T07:11:06.329Z,4.10
2018-11-20T07:14:09.848Z,4.20
2018-11-20T07:16:58.358Z,4.20
2018-11-20T07:19:52.240Z,4.30
2018-11-20T07:22:44.852Z,4.30
2018-11-20T07:25:31.515Z,4.30
2018-11-20T07:28:25.416Z,4.30
2018-11-20T07:31:24.140Z,4.40
2018-11-20T07:34:06.524Z,4.50
2018-11-20T07:37:10.296Z,4.60
2018-11-20T07:39:55.828Z,4.70
2018-11-20T07:42:47.516Z,4.60
2018-11-20T07:45:35.848Z,4.50
2018-11-20T07:48:36.228Z,4.60
2018-11-20T07:51:22.201Z,4.70
2018-11-20T07:54:16.443Z,4.80
2018-11-20T07:57:03.291Z,4.90
2018-11-20T07:59:57.504Z,5.00
2018-11-20T08:02:57.922Z,4.90
2018-11-20T08:06:05.241Z,4.90
2018-11-20T08:08:57.177Z,4.90
2018-11-20T08:11:44.219Z,5.00
2018-11-20T08:14:38.597Z,4.90
2018-11-20T08:17:14.623Z,4.90
2018-11-20T08:19:57.766Z,4.90
2018-11-20T08:22:55.232Z,4.90
2018-11-20T08:25:55.233Z,4.90
2018-11-20T08:28:49.217Z,5.00
2018-11-20T08:31:37.560Z,5.00
2018-11-20T08:34:34.728Z,5.00
2018-11-20T08:37:21.743Z,5.10
2018-11-20T08:40:08.816Z,5.20
2018-11-20T08:43:01.566Z,5.40
2018-11-20T08:45:57.613Z,5.60
2018-11-20T08:48:44.680Z,5.60
2018-11-20T08:51:35.670Z,5.60
2018-11-20T08:54:14.629Z,5.60
2018-11-20T08:57:05.684Z,5.60
2018-11-20T08:59:44.348Z,5.60
2018-11-20T09:02:35.712Z,5.60
2018-11-20T09:05:22.318Z,5.50
2018-11-20T09:08:10.732Z,5.40
2018-11-20T09:10:56.681Z,5.40
2018-11-20T09:14:00.234Z,5.40
2018-11-20T09:16:51.407Z,5.40
2018-11-20T09:19:42.778Z,5.40
2018-11-20T09:22:25.792Z,5.50
2018-11-20T09:25:31.961Z,5.50
2018-11-20T09:28:20.573Z,5.50
2018-11-20T09:31:08.984Z,5.50
2018-11-20T09:34:00.407Z,5.60
2018-11-20T09:36:57.472Z,5.70
2018-11-20T09:39:47.110Z,5.70
2018-11-20T09:42:38.554Z,5.70
2018-11-20T09:45:37.156Z,5.80
2018-11-20T09:48:26.586Z,5.80
2018-11-20T09:51:15.069Z,5.90
2018-11-20T09:54:02.687Z,5.90
2018-11-20T09:56:49.636Z,5.90
2018-11-20T09:59:50.174Z,5.80
2018-11-20T10:02:33.245Z,5.80
2018-11-20T10:05:19.516Z,5.80
2018-11-20T10:08:10.828Z,5.80
2018-11-20T10:10:54.102Z,5.80
2018-11-20T10:13:40.869Z,5.80
2018-11-20T10:16:47.275Z,5.90
2018-11-20T10:19:33.967Z,5.90
2018-11-20T10:22:28.010Z,5.90
2018-11-20T10:25:19.159Z,5.70
2018-11-20T10:28:05.918Z,5.70
2018-11-20T10:30:56.946Z,5.60
2018-11-20T10:34:00.184Z,5.60
2018-11-20T10:36:42.843Z,5.70
2018-11-20T10:39:37.316Z,5.80
2018-11-20T10:42:34.870Z,5.90
2018-11-20T10:45:19.836Z,6.00
2018-11-20T10:48:06.987Z,6.10
2018-11-20T10:50:53.760Z,6.10
2018-11-20T10:53:31.123Z,6.10
2018-11-20T10:56:18.145Z,6.20
2018-11-20T10:59:00.156Z,6.20
2018-11-20T11:01:47.146Z,6.20
2018-11-20T11:04:33.908Z,6.20
2018-11-20T11:07:20.949Z,6.10
2018-11-20T11:09:58.307Z,6.10
2018-11-20T11:12:49.606Z,6.10
2018-11-20T11:15:36.245Z,6.20
2018-11-20T11:18:24.672Z,6.20
2018-11-20T11:21:15.809Z,6.20
2018-11-20T11:24:10.032Z,6.30
2018-11-20T11:27:04.484Z,6.50
2018-11-20T11:29:55.493Z,6.80
2018-11-20T11:32:49.704Z,7.00
2018-11-20T11:35:46.947Z,7.20
2018-11-20T11:38:36.940Z,7.40
2018-11-20T11:41:23.674Z,7.30
2018-11-20T11:44:10.584Z,7.30
2018-11-20T11:46:57.435Z,7.20
2018-11-20T11:49:51.324Z,7.00
2018-11-20T11:52:38.142Z,6.90
2018-11-20T11:55:21.543Z,6.80
2018-11-20T11:58:07.651Z,6.70
2018-11-20T12:01:02.058Z,6.60
2018-11-20T12:03:42.479Z,6.40
2018-11-20T12:06:42.645Z,6.40
2018-11-20T12:09:29.233Z,6.40
2018-11-20T12:12:20.448Z,6.40
2018-11-20T12:15:10.106Z,6.40
2018-11-20T12:17:59.010Z,6.40
2018-11-20T12:20:47.388Z,6.50
2018-11-20T12:23:44.667Z,6.60
2018-11-20T12:26:35.689Z,6.50
2018-11-20T12:29:42.114Z,6.50
2018-11-20T12:32:39.473Z,6.50
2018-11-20T12:35:33.199Z,6.50
2018-11-20T12:38:23.304Z,6.40
2018-11-20T12:41:10.241Z,6.50
2018-11-20T12:44:06.012Z,6.60
2018-11-20T12:46:51.193Z,6.70
2018-11-20T12:49:42.491Z,6.80
2018-11-20T12:52:28.855Z,6.80
2018-11-20T12:55:15.581Z,7.00
2018-11-20T12:58:07.442Z,7.10
2018-11-20T13:01:01.879Z,7.20
2018-11-20T13:03:53.025Z,7.20
2018-11-20T13:06:37.551Z,7.20
2018-11-20T13:09:27.646Z,7.10
2018-11-20T13:12:18.641Z,7.00
2018-11-20T13:15:09.853Z,7.10
2018-11-20T13:17:54.702Z,7.10
2018-11-20T13:20:41.463Z,7.10
2018-11-20T13:23:29.404Z,7.10
2018-11-20T13:26:19.606Z,7.10
2018-11-20T13:29:10.963Z,7.10
2018-11-20T13:31:57.931Z,7.10
2018-11-20T13:34:44.925Z,7.20
2018-11-20T13:37:33.538Z,7.20
2018-11-20T13:40:18.537Z,7.20
2018-11-20T13:43:22.540Z,7.20
2018-11-20T13:46:19.999Z,7.10
2018-11-20T13:49:20.420Z,7.20
2018-11-20T13:52:06.589Z,7.20
2018-11-20T13:54:53.470Z,7.10
2018-11-20T13:57:46.301Z,7.20
2018-11-20T14:00:33.295Z,7.20
2018-11-20T14:03:20.329Z,7.10
2018-11-20T14:06:18.540Z,7.10
2018-11-20T14:09:03.612Z,7.10
2018-11-20T14:11:39.360Z,7.10
2018-11-20T14:14:27.732Z,7.10
2018-11-20T14:17:14.626Z,7.10
2018-11-20T14:19:54.251Z,7.10
2018-11-20T14:22:51.448Z,7.10
2018-11-20T14:25:44.313Z,7.10
2018-11-20T14:28:44.538Z,7.10
2018-11-20T14:32:13.538Z,7.00
2018-11-20T14:35:04.009Z,7.00
2018-11-20T14:38:00.748Z,7.00
2018-11-20T14:40:57.450Z,6.90
2018-11-20T14:43:43.708Z,6.90
2018-11-20T14:46:29.793Z,6.90
2018-11-20T14:49:16.040Z,6.90
2018-11-20T14:52:02.000Z,6.80
2018-11-20T14:54:48.848Z,6.80
2018-11-20T14:57:42.185Z,6.80
2018-11-20T15:00:37.198Z,6.80
2018-11-20T15:03:42.747Z,6.70
2018-11-20T15:06:45.257Z,6.70
2018-11-20T15:09:35.837Z,6.70
2018-11-20T15:12:21.919Z,6.60
2018-11-20T15:15:07.934Z,6.50
2018-11-20T15:17:53.893Z,6.50
2018-11-20T15:20:39.832Z,6.50
2018-11-20T15:23:22.806Z,6.40
2018-11-20T15:26:10.464Z,6.40
2018-11-20T15:28:56.746Z,6.30
2018-11-20T15:31:42.644Z,6.20
2018-11-20T15:34:39.155Z,6.10
2018-11-20T15:37:35.673Z,6.00
2018-11-20T15:40:30.056Z,6.00
2018-11-20T15:43:17.637Z,5.90
2018-11-20T15:46:03.984Z,5.80
2018-11-20T15:48:50.901Z,5.80
2018-11-20T15:51:28.345Z,5.70
2018-11-20T15:54:34.090Z,5.60
2018-11-20T15:57:33.670Z,5.50
2018-11-20T16:00:19.706Z,5.40
2018-11-20T16:03:25.698Z,5.40
2018-11-20T16:06:11.767Z,5.30
2018-11-20T16:09:05.070Z,5.20
2018-11-20T16:11:58.331Z,5.10
2018-11-20T16:14:46.051Z,5.00
2018-11-20T16:17:33.700Z,5.00
2018-11-20T16:20:36.514Z,5.00
2018-11-20T16:23:22.832Z,4.90
2018-11-20T16:26:16.143Z,4.90
2018-11-20T16:29:06.761Z,4.90
2018-11-20T16:32:06.336Z,4.80
2018-11-20T16:35:02.648Z,4.70
2018-11-20T16:37:55.981Z,4.70
2018-11-20T16:40:46.458Z,4.60
2018-11-20T16:43:49.011Z,4.60
2018-11-20T16:46:45.614Z,4.60
2018-11-20T16:49:29.467Z,4.60
2018-11-20T16:52:15.662Z,4.60
2018-11-20T16:55:05.916Z,4.60
2018-11-20T16:57:56.208Z,4.60
2018-11-20T17:00:45.322Z,4.60
2018-11-20T17:03:40.612Z,4.50
2018-11-20T17:06:27.584Z,4.50
2018-11-20T17:09:14.992Z,4.40
2018-11-20T17:12:08.287Z,4.40
2018-11-20T17:14:55.934Z,4.40
2018-11-20T17:17:52.228Z,4.40
2018-11-20T17:20:38.137Z,4.40
2018-11-20T17:23:31.791Z,4.40
2018-11-20T17:26:17.974Z,4.40
2018-11-20T17:29:04.297Z,4.40
2018-11-20T17:31:50.278Z,4.40
2018-11-20T17:34:36.198Z,4.40
2018-11-20T17:37:12.347Z,4.40
2018-11-20T17:39:58.153Z,4.40
2018-11-20T17:42:44.263Z,4.40
2018-11-20T17:45:34.019Z,4.30
2018-11-20T17:48:21.568Z,4.30
2018-11-20T17:51:21.309Z,4.30
2018-11-20T17:54:11.853Z,4.30
2018-11-20T17:56:57.849Z,4.30
2018-11-20T17:59:54.294Z,4.20
2018-11-20T18:02:40.295Z,4.20
2018-11-20T18:05:33.868Z,4.20
2018-11-20T18:08:19.727Z,4.20
2018-11-20T18:11:09.959Z,4.10
2018-11-20T18:14:01.798Z,4.10
2018-11-20T18:17:07.360Z,4.10
2018-11-20T18:20:01.019Z,4.10
2018-11-20T18:22:54.374Z,4.00
2018-11-20T18:25:50.623Z,4.00
2018-11-20T18:28:36.624Z,4.00
2018-11-20T18:31:15.656Z,4.00
2018-11-20T18:34:15.493Z,4.00
2018-11-20T18:37:09.109Z,3.90
2018-11-20T18:39:56.701Z,4.00
2018-11-20T18:42:40.876Z,3.90
2018-11-20T18:45:27.184Z,4.00
2018-11-20T18:48:13.416Z,3.90
2018-11-20T18:51:15.996Z,3.90
2018-11-20T18:54:02.418Z,3.90
2018-11-20T18:56:50.181Z,3.90
2018-11-20T18:59:36.236Z,3.80
2018-11-20T19:02:24.709Z,3.70
2018-11-20T19:05:11.709Z,3.70
2018-11-20T19:08:14.135Z,3.60
2018-11-20T19:11:00.651Z,3.60
2018-11-20T19:13:56.004Z,3.60
2018-11-20T19:16:42.006Z,3.60
2018-11-20T19:19:20.133Z,3.60
2018-11-20T19:22:06.624Z,3.50
2018-11-20T19:24:57.060Z,3.50
2018-11-20T19:27:57.438Z,3.50
2018-11-20T19:30:43.565Z,3.50
2018-11-20T19:33:34.023Z,3.40
2018-11-20T19:36:30.642Z,3.40
2018-11-20T19:39:16.611Z,3.40
2018-11-20T19:42:15.383Z,3.40
2018-11-20T19:45:18.275Z,3.30
2018-11-20T19:48:12.731Z,3.30
2018-11-20T19:51:00.805Z,3.30
2018-11-20T19:53:57.462Z,3.30
2018-11-20T19:56:43.648Z,3.30
2018-11-20T19:59:40.127Z,3.30
2018-11-20T20:02:36.582Z,3.20
2018-11-20T20:05:22.243Z,3.20
2018-11-20T20:08:12.516Z,3.20
2018-11-20T20:10:54.565Z,3.20
2018-11-20T20:13:48.123Z,3.20
2018-11-20T20:16:41.468Z,3.10
2018-11-20T20:19:27.737Z,3.10
2018-11-20T20:22:18.207Z,3.10
2018-11-20T20:25:04.061Z,3.10
2018-11-20T20:28:06.398Z,3.10
2018-11-20T20:30:54.090Z,3.10
2018-11-20T20:33:33.882Z,3.00
2018-11-20T20:36:29.884Z,3.00
2018-11-20T20:39:17.633Z,2.90
2018-11-20T20:42:14.141Z,2.90
2018-11-20T20:45:00.422Z,2.90
2018-11-20T20:47:55.760Z,2.90
2018-11-20T20:50:38.054Z,2.90
2018-11-20T20:53:23.752Z,2.80
2018-11-20T20:56:09.654Z,2.80
2018-11-20T20:58:55.611Z,2.80
2018-11-20T21:01:51.875Z,2.80
2018-11-20T21:04:27.205Z,2.80
2018-11-20T21:07:11.810Z,2.70
2018-11-20T21:10:14.476Z,2.70
2018-11-20T21:12:57.251Z,2.70
2018-11-20T21:15:47.721Z,2.60
2018-11-20T21:18:44.264Z,2.60
2018-11-20T21:21:34.620Z,2.60
2018-11-20T21:24:27.705Z,2.60
2018-11-20T21:27:08.189Z,2.60
2018-11-20T21:30:04.856Z,2.50
2018-11-20T21:32:51.069Z,2.50
2018-11-20T21:35:50.518Z,2.50
2018-11-20T21:38:46.788Z,2.50
2018-11-20T21:41:35.789Z,2.50
2018-11-20T21:44:21.706Z,2.50
2018-11-20T21:47:02.022Z,2.40
2018-11-20T21:49:55.515Z,2.40
2018-11-20T21:52:43.204Z,2.40
2018-11-20T21:55:36.585Z,2.40
2018-11-20T21:58:22.981Z,2.40
2018-11-20T22:01:11.440Z,2.50
2018-11-20T22:03:59.439Z,2.50
2018-11-20T22:06:45.361Z,2.50
2018-11-20T22:09:32.965Z,2.50
2018-11-20T22:12:26.517Z,2.50
2018-11-20T22:15:12.260Z,2.50
2018-11-20T22:18:03.638Z,2.50
2018-11-20T22:20:49.848Z,2.50
2018-11-20T22:23:43.518Z,2.50
2018-11-20T22:26:35.693Z,2.50
2018-11-20T22:29:16.896Z,2.50
2018-11-20T22:32:02.786Z,2.40
2018-11-20T22:34:49.300Z,2.40
2018-11-20T22:37:39.822Z,2.30
2018-11-20T22:40:30.650Z,2.30
2018-11-20T22:43:14.585Z,2.30
2018-11-20T22:46:03.038Z,2.20
2018-11-20T22:48:49.655Z,2.20
2018-11-20T22:51:37.195Z,2.10
2018-11-20T22:54:16.393Z,2.10
2018-11-20T22:56:54.212Z,2.10
2018-11-20T22:59:30.129Z,2.20
2018-11-20T23:02:22.163Z,2.10
2018-11-20T23:05:26.469Z,2.10
2018-11-20T23:07:56.302Z,2.10
2018-11-20T23:10:26.038Z,2.00
2018-11-20T23:12:54.692Z,2.00
2018-11-20T23:15:23.385Z,2.00
2018-11-20T23:17:51.842Z,2.00
2018-11-20T23:20:20.318Z,2.00
2018-11-20T23:22:49.325Z,2.00
2018-11-20T23:25:17.808Z,2.00
2018-11-20T23:27:46.368Z,2.00
2018-11-20T23:30:16.477Z,2.00
2018-11-20T23:32:44.959Z,2.00
2018-11-20T23:35:14.009Z,2.00
2018-11-20T23:37:43.149Z,2.00
2018-11-20T23:40:12.907Z,2.00
2018-11-20T23:42:41.769Z,2.00
2018-11-20T23:45:12.885Z,1.90
2018-11-20T23:47:41.553Z,1.90
2018-11-20T23:50:12.036Z,1.90
2018-11-20T23:52:40.667Z,1.90
2018-11-20T23:55:14.909Z,1.90
2018-11-20T23:57:43.370Z,1.90
